createdAt,value
2019-04-11T00:00:57.726Z,71.71
2019-04-11T00:02:02.561Z,71.65
2019-04-11T00:03:06.077Z,71.48
2019-04-11T00:04:10.319Z,71.45
2019-04-11T00:05:14.780Z,71.43
2019-04-11T00:06:19.254Z,71.42
2019-04-11T00:07:22.854Z,71.11
2019-04-11T00:08:28.042Z,71.01
2019-04-11T00:09:32.497Z,71.09
2019-04-11T00:10:35.532Z,71.16
2019-04-11T00:11:39.373Z,71.15
2019-04-11T00:12:43.783Z,71.01
2019-04-11T00:13:47.967Z,70.97
2019-04-11T00:14:52.240Z,70.94
2019-04-11T00:15:57.174Z,70.89
2019-04-11T00:17:01.572Z,70.67
2019-04-11T00:18:06.070Z,70.91
2019-04-11T00:19:09.425Z,70.86
2019-04-11T00:20:13.286Z,70.92
2019-04-11T00:21:17.344Z,70.86
2019-04-11T00:22:21.567Z,70.96
2019-04-11T00:23:26.093Z,70.88
2019-04-11T00:24:31.259Z,70.80
2019-04-11T00:25:34.161Z,70.89
2019-04-11T00:26:38.474Z,71.00
2019-04-11T00:27:43.448Z,71.42
2019-04-11T00:28:47.882Z,71.71
2019-04-11T00:29:51.418Z,72.13
2019-04-11T00:30:55.027Z,72.33
2019-04-11T00:31:59.233Z,72.14
2019-04-11T00:33:03.526Z,71.80
2019-04-11T00:34:08.819Z,71.64
2019-04-11T00:35:11.702Z,71.87
2019-04-11T00:36:16.576Z,72.37
2019-04-11T00:37:21.023Z,72.61
2019-04-11T00:38:24.209Z,72.99
2019-04-11T00:39:28.401Z,73.23
2019-04-11T00:40:33.274Z,73.50
2019-04-11T00:41:37.703Z,73.69
2019-04-11T00:42:40.987Z,73.58
2019-04-11T00:43:45.761Z,73.62
2019-04-11T00:44:49.609Z,73.56
2019-04-11T00:45:54.065Z,73.42
2019-04-11T00:46:58.482Z,73.28
2019-04-11T00:48:01.904Z,73.22
2019-04-11T00:49:06.262Z,73.18
2019-04-11T00:50:10.718Z,73.06
2019-04-11T00:51:14.444Z,72.96
2019-04-11T00:52:18.683Z,72.91
2019-04-11T00:53:22.929Z,73.02
2019-04-11T00:54:27.009Z,73.50
2019-04-11T00:55:31.477Z,73.53
2019-04-11T00:56:35.259Z,73.39
2019-04-11T00:57:39.456Z,73.34
2019-04-11T00:58:43.709Z,73.42
2019-04-11T00:59:48.807Z,73.34
2019-04-11T01:00:53.424Z,73.14
2019-04-11T01:01:56.866Z,72.96
2019-04-11T01:03:00.502Z,73.12
2019-04-11T01:04:04.739Z,73.38
2019-04-11T01:05:09.594Z,73.51
2019-04-11T01:06:13.946Z,73.67
2019-04-11T01:07:18.514Z,73.81
2019-04-11T01:08:21.840Z,73.63
2019-04-11T01:09:26.401Z,73.81
2019-04-11T01:10:30.044Z,73.65
2019-04-11T01:11:34.237Z,73.50
2019-04-11T01:12:38.258Z,73.49
2019-04-11T01:13:50.342Z,73.52
2019-04-11T01:14:46.937Z,73.68
2019-04-11T01:15:50.860Z,73.60
2019-04-11T01:16:55.132Z,73.71
2019-04-11T01:18:03.521Z,73.39
2019-04-11T01:19:06.606Z,73.11
2019-04-11T01:20:09.524Z,73.12
2019-04-11T01:21:13.765Z,73.41
2019-04-11T01:22:18.156Z,73.33
2019-04-11T01:23:22.769Z,73.31
2019-04-11T01:24:26.070Z,73.32
2019-04-11T01:25:30.674Z,73.20
2019-04-11T01:26:35.085Z,73.16
2019-04-11T01:27:39.709Z,73.17
2019-04-11T01:28:42.893Z,73.18
2019-04-11T01:29:47.396Z,73.30
2019-04-11T01:30:51.326Z,73.30
2019-04-11T01:33:04.567Z,73.13
2019-04-11T01:34:08.608Z,73.35
2019-04-11T01:35:13.101Z,73.19
2019-04-11T01:36:16.520Z,73.21
2019-04-11T01:37:21.785Z,73.24
2019-04-11T01:38:25.463Z,73.24
2019-04-11T01:39:29.415Z,73.23
2019-04-11T01:40:33.891Z,73.20
2019-04-11T01:41:37.060Z,72.98
2019-04-11T01:42:41.784Z,72.75
2019-04-11T01:43:55.384Z,72.80
2019-04-11T01:44:49.598Z,72.69
2019-04-11T01:45:53.806Z,72.72
2019-04-11T01:46:58.347Z,72.54
2019-04-11T01:48:01.929Z,72.54
2019-04-11T01:49:06.126Z,72.66
2019-04-11T01:50:10.599Z,72.58
2019-04-11T01:51:14.377Z,72.48
2019-04-11T01:52:18.504Z,72.41
2019-04-11T01:53:22.689Z,72.32
2019-04-11T01:54:28.064Z,72.29
2019-04-11T01:55:31.215Z,72.39
2019-04-11T01:56:35.337Z,72.46
2019-04-11T01:57:40.271Z,72.38
2019-04-11T01:58:43.755Z,72.25
2019-04-11T01:59:48.005Z,72.41
2019-04-11T02:00:52.563Z,72.48
2019-04-11T02:01:56.931Z,72.51
2019-04-11T02:03:01.215Z,72.57
2019-04-11T02:04:05.725Z,72.59
2019-04-11T02:05:08.620Z,72.56
2019-04-11T02:06:13.844Z,72.72
2019-04-11T02:07:16.855Z,73.13
2019-04-11T02:08:20.971Z,73.38
2019-04-11T02:09:26.179Z,73.37
2019-04-11T02:10:29.669Z,73.27
2019-04-11T02:11:33.964Z,73.24
2019-04-11T02:12:37.730Z,73.13
2019-04-11T02:13:41.994Z,73.02
2019-04-11T02:14:46.140Z,73.23
2019-04-11T02:15:50.398Z,73.45
2019-04-11T02:16:54.404Z,73.81
2019-04-11T02:17:59.241Z,74.03
2019-04-11T02:19:03.653Z,73.62
2019-04-11T02:20:07.018Z,73.74
2019-04-11T02:21:11.551Z,73.79
2019-04-11T02:22:15.955Z,73.81
2019-04-11T02:23:20.079Z,74.00
2019-04-11T02:24:23.740Z,74.06
2019-04-11T02:25:28.219Z,74.29
2019-04-11T02:26:31.645Z,74.28
2019-04-11T02:27:35.867Z,74.20
2019-04-11T02:28:40.985Z,74.36
2019-04-11T02:29:44.810Z,74.63
2019-04-11T02:30:48.689Z,74.66
2019-04-11T02:31:52.885Z,74.64
2019-04-11T02:32:58.175Z,74.52
2019-04-11T02:34:01.948Z,74.48
2019-04-11T02:35:07.606Z,74.48
2019-04-11T02:36:10.033Z,74.33
2019-04-11T02:37:13.492Z,74.08
2019-04-11T02:38:18.769Z,74.08
2019-04-11T02:39:22.872Z,74.16
2019-04-11T02:40:27.506Z,74.29
2019-04-11T02:41:31.460Z,74.07
2019-04-11T02:42:35.074Z,74.02
2019-04-11T02:43:40.133Z,73.91
2019-04-11T02:44:59.669Z,73.73
2019-04-11T02:45:58.220Z,74.08
2019-04-11T02:47:00.722Z,74.19
2019-04-11T02:47:57.132Z,74.16
2019-04-11T02:49:02.990Z,74.36
2019-04-11T02:50:05.838Z,74.44
2019-04-11T02:51:09.877Z,74.41
2019-04-11T02:52:13.471Z,74.36
2019-04-11T02:53:17.651Z,74.65
2019-04-11T02:54:22.358Z,74.92
2019-04-11T02:55:27.591Z,74.62
2019-04-11T02:56:31.217Z,74.48
2019-04-11T02:57:34.384Z,74.46
2019-04-11T02:58:39.168Z,74.57
2019-04-11T02:59:44.641Z,74.67
2019-04-11T03:00:46.942Z,75.17
2019-04-11T03:01:51.364Z,74.92
2019-04-11T03:02:56.912Z,74.98
2019-04-11T03:04:01.713Z,74.72
2019-04-11T03:05:05.577Z,74.56
2019-04-11T03:06:09.283Z,74.67
2019-04-11T03:07:12.337Z,74.81
2019-04-11T03:08:19.138Z,74.75
2019-04-11T03:09:22.024Z,74.94
2019-04-11T03:10:24.795Z,75.17
2019-04-11T03:11:30.216Z,75.28
2019-04-11T03:12:33.918Z,75.14
2019-04-11T03:13:38.148Z,75.24
2019-04-11T03:15:01.895Z,75.29
2019-04-11T03:16:01.631Z,75.22
2019-04-11T03:16:59.660Z,75.15
2019-04-11T03:17:57.742Z,75.28
2019-04-11T03:19:15.925Z,75.24
2019-04-11T03:20:13.316Z,75.03
2019-04-11T03:21:11.126Z,75.01
2019-04-11T03:22:10.334Z,75.17
2019-04-11T03:23:18.102Z,75.31
2019-04-11T03:24:18.389Z,75.32
2019-04-11T03:25:22.672Z,75.24
2019-04-11T03:26:27.065Z,75.44
2019-04-11T03:27:32.390Z,75.58
2019-04-11T03:28:36.369Z,75.45
2019-04-11T03:29:38.954Z,75.48
2019-04-11T03:31:06.901Z,75.77
2019-04-11T03:32:34.311Z,75.83
2019-04-11T03:34:51.942Z,75.38
2019-04-11T03:35:51.011Z,75.46
2019-04-11T03:37:38.611Z,75.45
2019-04-11T03:38:38.482Z,75.59
2019-04-11T03:39:39.524Z,76.63
2019-04-11T03:40:36.948Z,77.26
2019-04-11T03:41:42.764Z,77.60
2019-04-11T03:42:43.321Z,77.28
2019-04-11T03:43:42.037Z,76.91
2019-04-11T03:44:43.782Z,77.16
2019-04-11T03:45:58.937Z,77.37
2019-04-11T03:47:01.792Z,77.10
2019-04-11T03:48:06.978Z,77.12
2019-04-11T03:49:03.968Z,77.43
2019-04-11T03:50:05.366Z,77.69
2019-04-11T03:51:02.614Z,77.70
2019-04-11T03:52:08.195Z,78.05
2019-04-11T03:53:11.375Z,78.44
2019-04-11T03:54:15.606Z,78.19
2019-04-11T03:55:19.339Z,78.08
2019-04-11T03:56:22.376Z,77.92
2019-04-11T03:57:27.698Z,78.11
2019-04-11T03:58:31.135Z,78.22
2019-04-11T03:59:36.614Z,78.56
2019-04-11T04:00:43.128Z,78.56
2019-04-11T04:01:44.317Z,78.10
2019-04-11T04:02:48.947Z,77.52
2019-04-11T04:03:53.409Z,77.25
2019-04-11T04:04:56.795Z,77.04
2019-04-11T04:06:01.772Z,77.96
2019-04-11T04:07:04.935Z,78.25
2019-04-11T04:08:08.782Z,78.23
2019-04-11T04:09:13.098Z,78.16
2019-04-11T04:10:17.913Z,78.24
2019-04-11T04:11:22.164Z,78.52
2019-04-11T04:12:24.561Z,78.42
2019-04-11T04:13:31.633Z,78.28
2019-04-11T04:14:34.354Z,78.22
2019-04-11T04:15:51.717Z,78.23
2019-04-11T04:16:46.825Z,77.82
2019-04-11T04:17:45.671Z,77.61
2019-04-11T04:18:49.599Z,77.54
2019-04-11T04:19:54.270Z,77.38
2019-04-11T04:20:59.546Z,77.19
2019-04-11T04:22:03.125Z,77.34
2019-04-11T04:23:07.631Z,77.21
2019-04-11T04:24:10.619Z,77.36
2019-04-11T04:25:14.432Z,77.37
2019-04-11T04:26:19.181Z,77.21
2019-04-11T04:27:25.162Z,77.15
2019-04-11T04:28:27.296Z,77.00
2019-04-11T04:29:32.338Z,77.46
2019-04-11T04:30:36.022Z,77.38
2019-04-11T04:31:40.571Z,77.45
2019-04-11T04:32:45.080Z,77.59
2019-04-11T04:33:48.788Z,77.85
2019-04-11T04:34:53.109Z,78.05
2019-04-11T04:35:57.921Z,78.05
2019-04-11T04:37:00.639Z,78.24
2019-04-11T04:38:05.244Z,78.44
2019-04-11T04:39:10.539Z,78.57
2019-04-11T04:40:34.214Z,78.61
2019-04-11T04:41:28.138Z,78.73
2019-04-11T04:42:29.612Z,78.53
2019-04-11T04:43:27.246Z,78.62
2019-04-11T04:44:29.838Z,78.46
2019-04-11T04:45:54.589Z,78.44
2019-04-11T04:46:52.668Z,78.31
2019-04-11T04:47:46.990Z,78.31
2019-04-11T04:48:47.862Z,78.23
2019-04-11T04:49:52.158Z,78.02
2019-04-11T04:50:56.943Z,78.20
2019-04-11T04:51:59.448Z,78.39
2019-04-11T04:53:03.016Z,78.36
2019-04-11T04:54:08.099Z,78.52
2019-04-11T04:55:12.807Z,78.48
2019-04-11T04:56:18.483Z,78.52
2019-04-11T04:57:20.235Z,78.66
2019-04-11T04:58:24.868Z,78.67
2019-04-11T04:59:28.244Z,79.02
2019-04-11T05:00:32.156Z,79.24
2019-04-11T05:01:37.331Z,79.38
2019-04-11T05:02:41.974Z,79.57
2019-04-11T05:03:44.821Z,79.44
2019-04-11T05:04:48.487Z,79.59
2019-04-11T05:05:53.026Z,79.53
2019-04-11T05:06:56.756Z,79.83
2019-04-11T05:08:02.722Z,79.69
2019-04-11T05:09:06.395Z,79.85
2019-04-11T05:10:09.139Z,80.08
2019-04-11T05:11:14.014Z,80.22
2019-04-11T05:12:18.374Z,80.56
2019-04-11T05:13:21.806Z,80.56
2019-04-11T05:14:27.325Z,80.36
2019-04-11T05:15:30.162Z,80.65
2019-04-11T05:16:35.577Z,80.97
2019-04-11T05:17:38.744Z,80.95
2019-04-11T05:18:42.422Z,80.98
2019-04-11T05:19:46.634Z,81.17
2019-04-11T05:20:50.734Z,81.23
2019-04-11T05:21:54.916Z,81.34
2019-04-11T05:23:00.018Z,81.32
2019-04-11T05:24:04.042Z,81.21
2019-04-11T05:25:08.410Z,81.24
2019-04-11T05:26:11.385Z,81.11
2019-04-11T05:27:15.635Z,81.01
2019-04-11T05:28:19.827Z,81.14
2019-04-11T05:29:25.010Z,81.23
2019-04-11T05:30:29.165Z,81.06
2019-04-11T05:31:32.375Z,81.27
2019-04-11T05:32:37.514Z,81.32
2019-04-11T05:33:40.741Z,81.44
2019-04-11T05:34:45.642Z,81.55
2019-04-11T05:35:50.068Z,81.63
2019-04-11T05:36:53.363Z,81.88
2019-04-11T05:37:57.936Z,82.04
2019-04-11T05:39:02.350Z,82.06
2019-04-11T05:40:07.142Z,82.12
2019-04-11T05:41:12.250Z,82.10
2019-04-11T05:42:18.633Z,82.26
2019-04-11T05:43:18.308Z,82.32
2019-04-11T05:44:22.900Z,82.42
2019-04-11T05:45:26.685Z,82.48
2019-04-11T05:46:35.219Z,82.52
2019-04-11T05:47:35.204Z,82.65
2019-04-11T05:48:39.212Z,82.61
2019-04-11T05:49:43.900Z,82.70
2019-04-11T05:50:50.466Z,82.72
2019-04-11T05:51:55.705Z,82.79
2019-04-11T05:52:56.719Z,82.87
2019-04-11T05:54:05.932Z,83.03
2019-04-11T05:55:04.939Z,83.09
2019-04-11T05:56:09.180Z,83.13
2019-04-11T05:57:13.248Z,83.23
2019-04-11T05:58:17.680Z,83.28
2019-04-11T05:59:21.587Z,83.41
2019-04-11T06:00:24.849Z,83.51
2019-04-11T06:01:29.133Z,83.66
2019-04-11T06:02:33.310Z,83.76
2019-04-11T06:03:41.045Z,83.75
2019-04-11T06:04:42.696Z,84.14
2019-04-11T06:05:46.472Z,84.11
2019-04-11T06:06:50.653Z,84.21
2019-04-11T06:07:57.281Z,84.28
2019-04-11T06:09:00.767Z,84.64
2019-04-11T06:10:07.111Z,84.82
2019-04-11T06:11:06.982Z,84.91
2019-04-11T06:12:11.664Z,84.96
2019-04-11T06:13:16.428Z,84.91
2019-04-11T06:14:19.711Z,84.90
2019-04-11T06:15:27.095Z,84.92
2019-04-11T06:16:36.862Z,84.98
2019-04-11T06:17:34.341Z,84.98
2019-04-11T06:18:43.135Z,85.03
2019-04-11T06:19:42.395Z,85.05
2019-04-11T06:20:47.266Z,84.90
2019-04-11T06:21:50.827Z,84.90
2019-04-11T06:22:56.129Z,84.85
2019-04-11T06:23:59.286Z,84.94
2019-04-11T06:25:03.663Z,84.98
2019-04-11T06:26:09.188Z,85.04
2019-04-11T06:27:13.648Z,85.11
2019-04-11T06:28:15.929Z,85.18
2019-04-11T06:29:23.271Z,85.15
2019-04-11T06:30:24.317Z,85.18
2019-04-11T06:31:28.337Z,85.00
2019-04-11T06:32:32.583Z,85.12
2019-04-11T06:33:36.697Z,85.02
2019-04-11T06:34:41.719Z,84.86
2019-04-11T06:35:46.305Z,84.87
2019-04-11T06:36:49.610Z,84.99
2019-04-11T06:37:54.222Z,85.06
2019-04-11T06:38:58.756Z,84.94
2019-04-11T06:40:02.523Z,85.16
2019-04-11T06:41:06.311Z,85.05
2019-04-11T06:42:10.778Z,84.94
2019-04-11T06:43:14.463Z,85.10
2019-04-11T06:44:18.782Z,85.07
2019-04-11T06:45:27.153Z,85.23
2019-04-11T06:46:29.329Z,85.35
2019-04-11T06:47:34.600Z,85.31
2019-04-11T06:48:38.092Z,85.03
2019-04-11T06:49:42.570Z,84.98
2019-04-11T06:50:46.969Z,85.21
2019-04-11T06:51:50.512Z,85.21
2019-04-11T06:52:54.562Z,85.00
2019-04-11T06:53:58.826Z,84.94
2019-04-11T06:55:02.821Z,84.84
2019-04-11T06:56:08.257Z,84.59
2019-04-11T06:57:11.784Z,84.29
2019-04-11T06:58:15.581Z,84.21
2019-04-11T06:59:20.623Z,84.05
2019-04-11T07:00:23.771Z,84.12
2019-04-11T07:01:28.122Z,83.86
2019-04-11T07:02:32.371Z,83.85
2019-04-11T07:03:36.597Z,83.49
2019-04-11T07:04:41.820Z,83.09
2019-04-11T07:05:44.894Z,82.96
2019-04-11T07:06:49.027Z,82.83
2019-04-11T07:07:53.666Z,83.01
2019-04-11T07:08:57.349Z,83.35
2019-04-11T07:10:02.086Z,83.58
2019-04-11T07:11:05.775Z,83.54
2019-04-11T07:12:09.975Z,83.61
2019-04-11T07:13:14.336Z,83.20
2019-04-11T07:14:18.370Z,82.97
2019-04-11T07:15:23.131Z,82.02
2019-04-11T07:16:27.634Z,81.66
2019-04-11T07:17:31.762Z,81.92
2019-04-11T07:18:35.723Z,81.47
2019-04-11T07:19:39.439Z,81.00
2019-04-11T07:20:43.669Z,81.27
2019-04-11T07:21:48.242Z,81.26
2019-04-11T07:22:52.044Z,81.85
2019-04-11T07:23:59.632Z,81.97
2019-04-11T07:25:02.317Z,81.69
2019-04-11T07:26:06.532Z,81.01
2019-04-11T07:27:11.672Z,80.76
2019-04-11T07:28:14.847Z,80.11
2019-04-11T07:29:19.511Z,80.22
2019-04-11T07:30:25.158Z,80.55
2019-04-11T07:31:27.807Z,80.67
2019-04-11T07:32:32.008Z,80.43
2019-04-11T07:33:37.230Z,80.46
2019-04-11T07:34:40.430Z,79.68
2019-04-11T07:35:45.136Z,79.92
2019-04-11T07:36:49.196Z,79.42
2019-04-11T07:37:53.414Z,79.05
2019-04-11T07:38:58.839Z,78.44
2019-04-11T07:40:02.978Z,79.56
2019-04-11T07:41:06.587Z,79.27
2019-04-11T07:42:11.288Z,79.64
2019-04-11T07:43:16.872Z,78.74
2019-04-11T07:44:19.611Z,78.79
2019-04-11T07:45:23.117Z,78.71
2019-04-11T07:46:27.357Z,79.12
2019-04-11T07:47:32.302Z,79.20
2019-04-11T07:48:35.949Z,78.22
2019-04-11T07:49:40.762Z,77.90
2019-04-11T07:50:44.378Z,78.54
2019-04-11T07:51:48.620Z,77.51
2019-04-11T07:52:52.158Z,77.00
2019-04-11T07:53:56.766Z,77.19
2019-04-11T07:55:00.483Z,76.80
2019-04-11T07:56:05.103Z,77.32
2019-04-11T07:57:09.100Z,76.87
2019-04-11T07:58:13.293Z,77.18
2019-04-11T07:59:17.540Z,76.75
2019-04-11T08:00:35.919Z,77.02
2019-04-11T08:01:26.929Z,77.49
2019-04-11T08:02:31.316Z,75.97
2019-04-11T08:03:35.579Z,75.60
2019-04-11T08:04:38.751Z,76.43
2019-04-11T08:05:43.020Z,76.28
2019-04-11T08:06:47.950Z,75.44
2019-04-11T08:07:51.514Z,75.67
2019-04-11T08:08:55.984Z,76.19
2019-04-11T08:10:00.028Z,75.20
2019-04-11T08:11:04.449Z,75.32
2019-04-11T08:12:08.761Z,74.96
2019-04-11T08:13:12.705Z,75.61
2019-04-11T08:14:18.213Z,75.29
2019-04-11T08:15:21.694Z,75.58
2019-04-11T08:16:25.311Z,73.68
2019-04-11T08:17:36.854Z,73.31
2019-04-11T08:18:34.921Z,74.00
2019-04-11T08:19:38.614Z,75.29
2019-04-11T08:20:42.300Z,73.62
2019-04-11T08:21:46.536Z,74.16
2019-04-11T08:22:51.589Z,74.50
2019-04-11T08:23:56.097Z,74.50
2019-04-11T08:24:59.218Z,74.53
2019-04-11T08:26:03.997Z,74.89
2019-04-11T08:27:07.673Z,73.72
2019-04-11T08:28:13.913Z,74.56
2019-04-11T08:29:16.157Z,72.32
2019-04-11T08:30:20.296Z,72.57
2019-04-11T08:31:24.535Z,73.20
2019-04-11T08:32:29.618Z,74.73
2019-04-11T08:33:33.102Z,74.03
2019-04-11T08:34:37.594Z,74.02
2019-04-11T08:35:44.322Z,72.99
2019-04-11T08:36:48.914Z,70.74
2019-04-11T08:37:51.956Z,71.63
2019-04-11T08:38:56.453Z,71.61
2019-04-11T08:40:01.705Z,68.37
2019-04-11T08:41:04.635Z,68.93
2019-04-11T08:42:09.410Z,70.98
2019-04-11T08:43:13.140Z,68.13
2019-04-11T08:44:17.496Z,68.60
2019-04-11T08:45:21.685Z,68.46
2019-04-11T08:46:26.797Z,70.61
2019-04-11T08:47:41.573Z,69.36
2019-04-11T08:48:35.173Z,68.69
2019-04-11T08:49:39.723Z,68.11
2019-04-11T08:50:43.056Z,68.94
2019-04-11T08:51:47.485Z,68.63
2019-04-11T08:52:51.991Z,69.26
2019-04-11T08:53:55.810Z,69.45
2019-04-11T08:55:00.083Z,70.33
2019-04-11T08:56:05.528Z,69.62
2019-04-11T08:57:09.994Z,69.54
2019-04-11T08:58:12.738Z,69.27
2019-04-11T08:59:17.283Z,68.81
2019-04-11T09:00:22.099Z,68.43
2019-04-11T09:01:25.411Z,67.80
2019-04-11T09:02:29.682Z,67.67
2019-04-11T09:03:33.973Z,66.33
2019-04-11T09:04:38.397Z,66.26
2019-04-11T09:05:42.879Z,67.44
2019-04-11T09:06:47.173Z,69.29
2019-04-11T09:07:52.030Z,69.91
2019-04-11T09:08:55.002Z,67.81
2019-04-11T09:09:59.815Z,69.19
2019-04-11T09:11:04.480Z,68.30
2019-04-11T09:12:07.840Z,68.08
2019-04-11T09:13:13.167Z,65.85
2019-04-11T09:14:16.295Z,66.78
2019-04-11T09:15:21.131Z,67.48
2019-04-11T09:16:25.771Z,67.45
2019-04-11T09:17:30.234Z,66.06
2019-04-11T09:18:34.370Z,66.19
2019-04-11T09:19:37.610Z,66.85
2019-04-11T09:20:41.973Z,68.13
2019-04-11T09:21:46.632Z,65.39
2019-04-11T09:22:50.539Z,62.81
2019-04-11T09:23:54.738Z,63.47
2019-04-11T09:24:59.050Z,64.35
2019-04-11T09:26:03.625Z,63.07
2019-04-11T09:27:08.601Z,62.20
2019-04-11T09:28:11.562Z,63.13
2019-04-11T09:29:15.871Z,63.43
2019-04-11T09:30:20.953Z,64.33
2019-04-11T09:31:25.506Z,66.10
2019-04-11T09:32:28.666Z,65.91
2019-04-11T09:33:33.120Z,65.71
2019-04-11T09:34:37.693Z,64.97
2019-04-11T09:35:41.571Z,65.39
2019-04-11T09:36:45.590Z,65.44
2019-04-11T09:37:49.736Z,64.67
2019-04-11T09:38:54.836Z,62.57
2019-04-11T09:39:59.318Z,63.67
2019-04-11T09:41:03.939Z,64.27
2019-04-11T09:42:07.174Z,64.52
2019-04-11T09:43:11.516Z,66.03
2019-04-11T09:44:15.370Z,65.22
2019-04-11T09:45:19.704Z,65.01
2019-04-11T09:46:24.147Z,66.51
2019-04-11T09:47:28.304Z,67.27
2019-04-11T09:48:33.535Z,67.30
2019-04-11T09:49:37.601Z,67.47
2019-04-11T09:50:40.711Z,68.20
2019-04-11T09:51:44.997Z,67.30
2019-04-11T09:52:49.579Z,68.27
2019-04-11T09:53:53.321Z,67.25
2019-04-11T09:54:58.765Z,68.47
2019-04-11T09:56:02.614Z,67.64
2019-04-11T09:57:06.098Z,67.13
2019-04-11T09:58:11.149Z,66.36
2019-04-11T09:59:14.615Z,66.97
2019-04-11T10:00:18.808Z,66.95
2019-04-11T10:01:23.129Z,66.62
2019-04-11T10:02:27.545Z,66.93
2019-04-11T10:03:32.107Z,67.33
2019-04-11T10:04:36.033Z,67.42
2019-04-11T10:05:40.683Z,67.08
2019-04-11T10:06:44.595Z,66.40
2019-04-11T10:07:48.260Z,67.68
2019-04-11T10:08:52.582Z,68.94
2019-04-11T10:09:56.912Z,70.58
2019-04-11T10:11:01.767Z,71.01
2019-04-11T10:12:06.459Z,71.34
2019-04-11T10:13:09.418Z,71.47
2019-04-11T10:14:13.704Z,71.56
2019-04-11T10:15:18.889Z,71.76
2019-04-11T10:16:22.242Z,71.92
2019-04-11T10:17:26.946Z,73.00
2019-04-11T10:18:35.473Z,72.29
2019-04-11T10:19:36.044Z,73.08
2019-04-11T10:20:40.390Z,72.28
2019-04-11T10:21:43.698Z,72.30
2019-04-11T10:22:48.093Z,72.62
2019-04-11T10:23:51.831Z,72.50
2019-04-11T10:24:56.821Z,72.49
2019-04-11T10:26:01.360Z,72.44
2019-04-11T10:27:04.808Z,71.67
2019-04-11T10:28:09.226Z,73.13
2019-04-11T10:29:12.955Z,72.37
2019-04-11T10:30:17.399Z,72.64
2019-04-11T10:31:22.329Z,73.78
2019-04-11T10:32:25.752Z,73.66
2019-04-11T10:33:30.952Z,73.94
2019-04-11T10:34:35.359Z,74.03
2019-04-11T10:35:38.703Z,74.01
2019-04-11T10:36:43.245Z,74.83
2019-04-11T10:37:47.717Z,74.20
2019-04-11T10:38:50.974Z,75.07
2019-04-11T10:39:55.205Z,72.94
2019-04-11T10:41:00.776Z,74.21
2019-04-11T10:42:04.268Z,73.64
2019-04-11T10:43:07.983Z,74.23
2019-04-11T10:44:12.297Z,74.07
2019-04-11T10:45:16.503Z,73.66
2019-04-11T10:46:20.765Z,74.34
2019-04-11T10:47:25.095Z,74.03
2019-04-11T10:48:37.910Z,73.17
2019-04-11T10:49:34.417Z,73.10
2019-04-11T10:50:37.528Z,72.50
2019-04-11T10:51:42.311Z,72.60
2019-04-11T10:52:46.772Z,71.72
2019-04-11T10:53:51.007Z,70.62
2019-04-11T10:54:55.341Z,70.80
2019-04-11T10:56:00.010Z,70.77
2019-04-11T10:57:03.455Z,71.13
2019-04-11T10:58:07.207Z,70.84
2019-04-11T10:59:11.397Z,71.22
2019-04-11T11:00:15.724Z,70.35
2019-04-11T11:01:19.990Z,69.88
2019-04-11T11:02:25.148Z,69.17
2019-04-11T11:03:29.050Z,69.30
2019-04-11T11:04:32.625Z,69.86
2019-04-11T11:05:38.017Z,69.00
2019-04-11T11:06:41.984Z,68.89
2019-04-11T11:07:45.661Z,69.50
2019-04-11T11:08:50.007Z,68.85
2019-04-11T11:09:54.687Z,69.50
2019-04-11T11:10:58.262Z,69.57
2019-04-11T11:12:03.007Z,69.75
2019-04-11T11:13:07.784Z,70.13
2019-04-11T11:14:12.283Z,69.58
2019-04-11T11:15:15.584Z,69.34
2019-04-11T11:16:20.240Z,69.27
2019-04-11T11:17:48.343Z,69.99
2019-04-11T11:18:48.094Z,69.57
2019-04-11T11:19:45.633Z,69.55
2019-04-11T11:20:41.532Z,69.25
2019-04-11T11:21:40.859Z,69.74
2019-04-11T11:22:46.108Z,69.87
2019-04-11T11:23:49.612Z,69.46
2019-04-11T11:24:54.503Z,68.39
2019-04-11T11:25:58.508Z,68.77
2019-04-11T11:27:04.070Z,68.89
2019-04-11T11:28:07.384Z,69.82
2019-04-11T11:29:14.793Z,69.08
2019-04-11T11:30:14.437Z,69.44
2019-04-11T11:31:18.663Z,67.94
2019-04-11T11:32:23.003Z,68.50
2019-04-11T11:33:27.159Z,68.21
2019-04-11T11:34:32.553Z,68.60
2019-04-11T11:35:39.045Z,67.68
2019-04-11T11:36:39.896Z,68.59
2019-04-11T11:37:45.092Z,68.38
2019-04-11T11:38:48.292Z,67.06
2019-04-11T11:39:52.509Z,67.71
2019-04-11T11:40:56.731Z,67.75
2019-04-11T11:42:02.102Z,67.31
2019-04-11T11:43:06.422Z,66.11
2019-04-11T11:44:09.774Z,66.26
2019-04-11T11:45:13.623Z,65.21
2019-04-11T11:46:19.304Z,64.16
2019-04-11T11:47:22.154Z,64.76
2019-04-11T11:48:27.819Z,66.52
2019-04-11T11:49:44.800Z,66.66
2019-04-11T11:50:36.037Z,65.36
2019-04-11T11:51:39.344Z,65.78
2019-04-11T11:52:43.997Z,66.02
2019-04-11T11:53:47.508Z,66.39
2019-04-11T11:54:51.800Z,65.78
2019-04-11T11:55:56.057Z,65.72
2019-04-11T11:57:00.314Z,66.63
2019-04-11T11:58:04.609Z,66.27
2019-04-11T11:59:09.138Z,66.60
2019-04-11T12:00:13.203Z,66.97
2019-04-11T12:01:17.745Z,66.39
2019-04-11T12:02:22.972Z,66.17
2019-04-11T12:03:29.161Z,66.27
2019-04-11T12:04:32.941Z,66.51
2019-04-11T12:05:34.737Z,67.01
2019-04-11T12:06:38.858Z,66.11
2019-04-11T12:07:43.120Z,66.13
2019-04-11T12:08:48.266Z,65.92
2019-04-11T12:09:51.014Z,66.66
2019-04-11T12:10:55.100Z,67.54
2019-04-11T12:11:59.479Z,67.73
2019-04-11T12:13:07.992Z,67.81
2019-04-11T12:14:07.922Z,67.27
2019-04-11T12:15:14.320Z,67.45
2019-04-11T12:16:20.727Z,67.52
2019-04-11T12:17:20.874Z,67.51
2019-04-11T12:18:24.933Z,67.25
2019-04-11T12:19:41.221Z,68.12
2019-04-11T12:20:33.245Z,68.02
2019-04-11T12:21:37.424Z,67.88
2019-04-11T12:22:42.231Z,68.94
2019-04-11T12:23:56.271Z,68.79
2019-04-11T12:24:50.339Z,69.25
2019-04-11T12:25:55.652Z,70.59
2019-04-11T12:26:58.661Z,70.59
2019-04-11T12:28:05.385Z,70.58
2019-04-11T12:29:08.293Z,71.68
2019-04-11T12:30:11.346Z,71.42
2019-04-11T12:31:15.619Z,71.40
2019-04-11T12:32:20.044Z,70.10
2019-04-11T12:33:24.050Z,72.07
2019-04-11T12:34:28.216Z,72.24
2019-04-11T12:35:32.648Z,72.30
2019-04-11T12:36:37.021Z,72.56
2019-04-11T12:37:41.311Z,72.17
2019-04-11T12:38:45.247Z,72.95
2019-04-11T12:39:49.438Z,72.24
2019-04-11T12:40:53.539Z,73.81
2019-04-11T12:41:57.767Z,73.96
2019-04-11T12:43:02.044Z,73.22
2019-04-11T12:44:06.305Z,72.72
2019-04-11T12:45:10.506Z,72.99
2019-04-11T12:46:14.813Z,73.48
2019-04-11T12:47:19.012Z,73.22
2019-04-11T12:48:23.210Z,72.67
2019-04-11T12:49:27.527Z,73.85
2019-04-11T12:50:31.879Z,74.13
2019-04-11T12:51:36.090Z,74.40
2019-04-11T12:52:40.283Z,74.28
2019-04-11T12:53:44.427Z,74.55
2019-04-11T12:54:48.652Z,74.47
2019-04-11T12:55:52.903Z,74.47
2019-04-11T12:56:57.132Z,74.80
2019-04-11T12:58:01.193Z,74.00
2019-04-11T12:59:05.537Z,74.68
2019-04-11T13:00:09.876Z,74.32
2019-04-11T13:01:14.031Z,74.07
2019-04-11T13:02:18.351Z,73.58
2019-04-11T13:03:22.574Z,73.22
2019-04-11T13:04:26.846Z,73.93
2019-04-11T13:05:30.973Z,73.84
2019-04-11T13:06:35.829Z,74.14
2019-04-11T13:07:39.454Z,74.19
2019-04-11T13:08:43.666Z,74.08
2019-04-11T13:09:47.895Z,74.17
2019-04-11T13:10:52.041Z,74.07
2019-04-11T13:11:56.324Z,73.87
2019-04-11T13:13:00.653Z,74.55
2019-04-11T13:14:04.841Z,74.16
2019-04-11T13:15:09.057Z,74.03
2019-04-11T13:16:13.332Z,74.06
2019-04-11T13:17:17.600Z,73.59
2019-04-11T13:18:21.880Z,73.58
2019-04-11T13:19:26.175Z,73.31
2019-04-11T13:20:30.428Z,73.97
2019-04-11T13:21:34.555Z,74.14
2019-04-11T13:22:38.806Z,73.06
2019-04-11T13:23:43.061Z,74.02
2019-04-11T13:24:47.221Z,73.72
2019-04-11T13:25:51.555Z,73.99
2019-04-11T13:26:55.792Z,73.50
2019-04-11T13:28:03.049Z,73.07
2019-04-11T13:29:06.262Z,73.43
2019-04-11T13:30:10.431Z,71.35
2019-04-11T13:31:14.653Z,70.52
2019-04-11T13:32:18.953Z,69.75
2019-04-11T13:33:23.213Z,69.92
2019-04-11T13:34:27.458Z,69.59
2019-04-11T13:35:31.717Z,68.93
2019-04-11T13:36:35.837Z,68.57
2019-04-11T13:37:40.013Z,68.97
2019-04-11T13:38:44.114Z,69.86
2019-04-11T13:39:48.588Z,69.47
2019-04-11T13:40:52.891Z,69.25
2019-04-11T13:41:57.075Z,70.36
2019-04-11T13:43:01.271Z,69.86
2019-04-11T13:44:05.493Z,69.47
2019-04-11T13:45:10.169Z,69.48
2019-04-11T13:46:14.020Z,70.16
2019-04-11T13:47:18.238Z,70.30
2019-04-11T13:48:22.350Z,69.99
2019-04-11T13:49:26.656Z,70.48
2019-04-11T13:50:30.805Z,70.65